createdAt,value
2023-05-21T00:02:44.994Z,83.4722
2023-05-21T00:03:46.536Z,83.4988
2023-05-21T00:10:51.414Z,83.6559
2023-05-21T00:11:51.875Z,83.6694
2023-05-21T00:13:52.416Z,83.6952
2023-05-21T00:14:53.316Z,83.7035
2023-05-21T00:15:54.364Z,83.7163
2023-05-21T00:16:54.949Z,83.7277
2023-05-21T00:17:56.863Z,83.7352
2023-05-21T00:18:58.087Z,83.7388
2023-05-21T00:19:58.509Z,83.7413
2023-05-21T00:20:58.836Z,83.7379
2023-05-21T00:22:00.032Z,83.7331
2023-05-21T00:25:00.737Z,83.7228
2023-05-21T00:26:01.637Z,83.7239
2023-05-21T00:27:03.130Z,83.7186
2023-05-21T00:28:03.843Z,83.7240
2023-05-21T00:30:04.736Z,83.7367
2023-05-21T00:31:05.712Z,83.7502
2023-05-21T00:32:06.167Z,83.7636
2023-05-21T00:33:06.218Z,83.7774
2023-05-21T00:34:07.821Z,83.7944
2023-05-21T00:35:08.754Z,83.8067
2023-05-21T00:40:12.539Z,83.9024
2023-05-21T00:41:13.461Z,83.9178
2023-05-21T00:42:13.993Z,83.9362
2023-05-21T00:43:15.648Z,83.9523
2023-05-21T00:44:15.895Z,83.9702
2023-05-21T00:45:16.442Z,83.9835
2023-05-21T00:46:17.272Z,84.0017
2023-05-21T00:54:24.241Z,84.1723
2023-05-21T00:55:24.756Z,84.1992
2023-05-21T00:56:24.772Z,84.2257
2023-05-21T00:57:26.608Z,84.2460
2023-05-21T00:58:27.339Z,84.2744
2023-05-21T00:59:27.866Z,84.2914
2023-05-21T01:00:29.596Z,84.3009
2023-05-21T01:02:29.113Z,84.3279
2023-05-21T01:03:30.124Z,84.3389
2023-05-21T01:05:31.731Z,84.3681
2023-05-21T01:06:32.612Z,84.3857
2023-05-21T01:13:35.775Z,84.4950
2023-05-21T01:14:35.887Z,84.5091
2023-05-21T01:15:36.417Z,84.5235
2023-05-21T01:16:37.394Z,84.5454
2023-05-21T01:17:38.018Z,84.5585
2023-05-21T01:18:38.585Z,84.5844
2023-05-21T01:19:39.504Z,84.6093
2023-05-21T01:20:40.557Z,84.6421
2023-05-21T01:21:41.334Z,84.6762
2023-05-21T01:22:41.409Z,84.7094
2023-05-21T01:23:42.299Z,84.7470
2023-05-21T01:25:45.531Z,84.8180
2023-05-21T01:26:46.398Z,84.8420
2023-05-21T01:27:47.273Z,84.8714
2023-05-21T01:28:48.097Z,84.9021
2023-05-21T01:29:48.413Z,84.9300
2023-05-21T01:31:51.187Z,84.9820
2023-05-21T01:33:51.309Z,85.0291
2023-05-21T01:34:51.557Z,85.0501
2023-05-21T01:35:53.525Z,85.0741
2023-05-21T01:36:55.376Z,85.0946
2023-05-21T01:39:57.453Z,85.1591
2023-05-21T01:50:05.805Z,85.3341
2023-05-21T01:53:08.262Z,85.3555
2023-05-21T01:55:08.034Z,85.3612
2023-05-21T01:56:08.798Z,85.3525
2023-05-21T01:58:10.108Z,85.3409
2023-05-21T02:01:13.713Z,85.3061
2023-05-21T02:10:18.970Z,85.0711
2023-05-21T02:11:21.137Z,85.0420
2023-05-21T02:12:23.014Z,85.0092
2023-05-21T02:13:26.050Z,84.9818
2023-05-21T02:14:24.170Z,84.9567
2023-05-21T02:17:25.411Z,84.8530
2023-05-21T02:18:26.384Z,84.8188
2023-05-21T02:23:29.418Z,84.6171
2023-05-21T02:24:29.487Z,84.5676
2023-05-21T02:25:30.732Z,84.5193
2023-05-21T02:26:31.497Z,84.4658
2023-05-21T02:27:31.919Z,84.4047
2023-05-21T02:28:32.885Z,84.3482
2023-05-21T02:29:34.321Z,84.3030
2023-05-21T02:30:35.633Z,84.2645
2023-05-21T02:31:36.138Z,84.2587
2023-05-21T02:32:37.821Z,84.2851
2023-05-21T02:43:43.284Z,83.6522
2023-05-21T02:44:43.870Z,83.5730
2023-05-21T02:45:43.969Z,83.5006
2023-05-21T02:46:44.152Z,83.4143
2023-05-21T02:47:44.655Z,83.3222
2023-05-21T02:48:45.021Z,83.2493
2023-05-21T02:49:46.585Z,83.1757
2023-05-21T02:50:47.860Z,83.1176
2023-05-21T02:51:49.709Z,83.0610
2023-05-21T02:52:49.986Z,83.0139
2023-05-21T02:53:49.996Z,82.9710
2023-05-21T02:54:50.835Z,82.9318
2023-05-21T02:55:51.029Z,82.8886
2023-05-21T02:56:52.024Z,82.8549
2023-05-21T02:57:52.768Z,82.8220
2023-05-21T02:58:52.884Z,82.7957
2023-05-21T02:59:53.873Z,82.7663
2023-05-21T03:00:54.060Z,82.7488
2023-05-21T03:05:56.530Z,82.5101
2023-05-21T03:06:57.767Z,82.4921
2023-05-21T03:07:58.608Z,82.5359
2023-05-21T03:09:00.600Z,82.5910
2023-05-21T03:10:01.139Z,82.6216
2023-05-21T03:11:01.489Z,82.6795
2023-05-21T03:12:02.345Z,82.7415
2023-05-21T03:13:03.263Z,82.7541
2023-05-21T03:14:03.678Z,82.7703
2023-05-21T03:19:36.098Z,82.9455
2023-05-21T03:20:36.312Z,83.0091
2023-05-21T03:21:37.982Z,83.0208
2023-05-21T03:23:38.687Z,82.8970
2023-05-21T03:24:39.683Z,82.8151
2023-05-21T03:26:40.279Z,82.6837
2023-05-21T03:27:41.053Z,82.6303
2023-05-21T03:29:42.624Z,82.5253
2023-05-21T03:41:51.212Z,81.7894
2023-05-21T03:42:52.219Z,81.7493
2023-05-21T03:44:52.879Z,81.6959
2023-05-21T03:45:53.446Z,81.6809
2023-05-21T03:46:54.815Z,81.6646
2023-05-21T03:48:56.010Z,81.6109
2023-05-21T03:49:56.703Z,81.5815
2023-05-21T03:50:56.820Z,81.5561
2023-05-21T03:51:58.374Z,81.5377
2023-05-21T03:53:58.313Z,81.5167
2023-05-21T03:54:58.513Z,81.4954
2023-05-21T03:55:58.775Z,81.4715
2023-05-21T03:57:00.003Z,81.4492
2023-05-21T03:58:00.499Z,81.4349
2023-05-21T03:59:01.309Z,81.4240
2023-05-21T04:00:02.944Z,81.4148
2023-05-21T04:01:04.124Z,81.4129
2023-05-21T04:02:04.966Z,81.4154
2023-05-21T04:03:06.428Z,81.4244
2023-05-21T04:04:07.372Z,81.4389
2023-05-21T04:05:06.619Z,81.4563
2023-05-21T04:06:08.529Z,81.4724
2023-05-21T04:07:10.049Z,81.5017
2023-05-21T04:08:10.593Z,81.5382
2023-05-21T04:09:11.359Z,81.5686
2023-05-21T04:14:14.417Z,81.7425
2023-05-21T04:17:15.086Z,81.9011
2023-05-21T04:18:16.287Z,81.9515
2023-05-21T04:20:16.291Z,82.0768
2023-05-21T04:21:17.260Z,82.1338
2023-05-21T04:23:18.020Z,82.2616
2023-05-21T04:24:18.387Z,82.3258
2023-05-21T04:25:18.601Z,82.3860
2023-05-21T04:26:20.733Z,82.4492
2023-05-21T04:29:24.478Z,82.6512
2023-05-21T04:30:25.901Z,82.7154
2023-05-21T04:35:28.356Z,83.0623
2023-05-21T04:37:29.850Z,83.2104
2023-05-21T04:38:30.215Z,83.2916
2023-05-21T04:43:34.316Z,83.6792
2023-05-21T04:45:33.868Z,83.8400
2023-05-21T04:46:35.424Z,83.9189
2023-05-21T04:47:36.271Z,84.0053
2023-05-21T04:56:40.458Z,84.7039
2023-05-21T04:57:41.653Z,84.7696
2023-05-21T04:58:42.277Z,84.8366
2023-05-21T04:59:42.849Z,84.9068
2023-05-21T05:00:43.988Z,84.9602
2023-05-21T05:01:44.436Z,85.0132
2023-05-21T05:03:45.817Z,85.1157
2023-05-21T05:04:46.274Z,85.1732
2023-05-21T05:05:47.042Z,85.2193
2023-05-21T05:07:49.445Z,85.3030
2023-05-21T05:09:49.996Z,85.3750
2023-05-21T05:10:50.765Z,85.4155
2023-05-21T05:11:50.948Z,85.4387
2023-05-21T05:12:52.079Z,85.4421
2023-05-21T05:19:56.326Z,85.2972
2023-05-21T05:20:58.318Z,85.2532
2023-05-21T05:21:59.272Z,85.2141
2023-05-21T05:22:59.750Z,85.1722
2023-05-21T05:24:01.049Z,85.1303
2023-05-21T05:25:01.751Z,85.0852
2023-05-21T05:27:02.044Z,84.9934
2023-05-21T05:28:03.739Z,84.9504
2023-05-21T05:30:04.256Z,84.8653
2023-05-21T05:31:05.116Z,84.8269
2023-05-21T05:32:06.210Z,84.7896
2023-05-21T05:33:08.317Z,84.7517
2023-05-21T05:34:08.511Z,84.7101
2023-05-21T05:35:08.779Z,84.6806
2023-05-21T05:36:09.373Z,84.6478
2023-05-21T05:37:11.006Z,84.6143
2023-05-21T05:40:13.447Z,84.5162
2023-05-21T05:41:14.101Z,84.4914
2023-05-21T05:42:15.328Z,84.4603
2023-05-21T05:43:16.849Z,84.4215
2023-05-21T05:48:20.907Z,84.2218
2023-05-21T05:49:22.222Z,84.1820
2023-05-21T05:50:22.489Z,84.1391
2023-05-21T05:51:23.181Z,84.0975
2023-05-21T05:52:23.493Z,84.0566
2023-05-21T05:53:24.682Z,84.0127
2023-05-21T05:54:25.135Z,83.9656
2023-05-21T05:55:25.273Z,83.9205
2023-05-21T05:56:25.807Z,83.8739
2023-05-21T05:57:26.067Z,83.8147
2023-05-21T05:58:27.247Z,83.7567
2023-05-21T05:59:27.508Z,83.7000
2023-05-21T06:00:28.841Z,83.6547
2023-05-21T06:01:29.832Z,83.6141
2023-05-21T06:02:30.303Z,83.5801
2023-05-21T06:03:30.539Z,83.5370
2023-05-21T06:07:33.346Z,83.3174
2023-05-21T06:08:36.640Z,83.2508
2023-05-21T06:09:34.796Z,83.1945
2023-05-21T06:10:35.706Z,83.1469
2023-05-21T06:11:35.751Z,83.0911
2023-05-21T06:12:36.891Z,83.0363
2023-05-21T06:13:38.552Z,82.9970
2023-05-21T06:14:38.745Z,82.9599
2023-05-21T06:16:42.403Z,82.8628
2023-05-21T06:21:43.878Z,82.5978
2023-05-21T06:22:43.981Z,82.5425
2023-05-21T06:27:47.508Z,82.2400
2023-05-21T06:28:48.757Z,82.1642
2023-05-21T06:29:48.962Z,82.0981
2023-05-21T06:30:50.488Z,82.0232
2023-05-21T06:31:52.211Z,81.9454
2023-05-21T06:32:52.855Z,81.8543
2023-05-21T06:33:53.496Z,81.7772
2023-05-21T06:34:54.909Z,81.7012
2023-05-21T06:37:57.198Z,81.4745
2023-05-21T06:38:57.301Z,81.4069
2023-05-21T06:39:57.400Z,81.3585
2023-05-21T06:40:58.527Z,81.3369
2023-05-21T06:41:58.680Z,81.3307
2023-05-21T06:43:00.107Z,81.3148
2023-05-21T06:44:01.041Z,81.2739
2023-05-21T06:49:05.261Z,81.1359
2023-05-21T06:51:04.983Z,81.1046
2023-05-21T06:52:06.014Z,81.0741
2023-05-21T06:53:06.882Z,81.0386
2023-05-21T06:54:08.030Z,81.0002
2023-05-21T06:55:08.662Z,80.9600
2023-05-21T06:56:09.245Z,80.9358
2023-05-21T06:57:10.609Z,80.8941
2023-05-21T06:58:12.443Z,80.8684
2023-05-21T07:00:13.839Z,80.8318
2023-05-21T07:01:14.899Z,80.8206
2023-05-21T07:09:19.379Z,80.5022
2023-05-21T07:10:20.188Z,80.4524
2023-05-21T07:11:21.269Z,80.4135
2023-05-21T07:12:22.095Z,80.3827
2023-05-21T07:13:22.728Z,80.3671
2023-05-21T07:15:23.199Z,80.3714
2023-05-21T07:16:23.841Z,80.3652
2023-05-21T07:17:24.117Z,80.3573
2023-05-21T07:18:25.551Z,80.3227
2023-05-21T07:19:26.311Z,80.2787
2023-05-21T07:20:27.422Z,80.2071
2023-05-21T07:21:28.576Z,80.1068
2023-05-21T07:22:30.249Z,79.9875
2023-05-21T07:23:30.384Z,79.8730
2023-05-21T07:24:31.501Z,79.7836
2023-05-21T07:27:33.521Z,79.5520
2023-05-21T07:28:33.903Z,79.4656
2023-05-21T07:29:34.984Z,79.3715
2023-05-21T07:30:35.880Z,79.2715
2023-05-21T07:31:35.982Z,79.1786
2023-05-21T07:32:36.263Z,79.1184
2023-05-21T07:33:37.352Z,79.0506
2023-05-21T07:34:38.254Z,78.9854
2023-05-21T07:35:38.656Z,78.9330
2023-05-21T07:36:40.482Z,78.8692
2023-05-21T07:37:42.076Z,78.7947
2023-05-21T07:38:42.544Z,78.7136
2023-05-21T07:39:43.506Z,78.6187
2023-05-21T07:40:43.941Z,78.5182
2023-05-21T07:41:44.669Z,78.4026
2023-05-21T07:42:44.708Z,78.2849
2023-05-21T07:45:44.793Z,77.8671
2023-05-21T07:46:44.974Z,77.7231
2023-05-21T07:47:45.333Z,77.5967
2023-05-21T07:48:46.175Z,77.4778
2023-05-21T07:50:48.823Z,77.2331
2023-05-21T07:51:49.700Z,77.1148
2023-05-21T07:56:53.401Z,76.3657
2023-05-21T07:57:53.780Z,76.2039
2023-05-21T07:59:55.535Z,75.7702
2023-05-21T08:00:55.997Z,75.4990
2023-05-21T08:01:56.828Z,75.2262
2023-05-21T08:02:58.351Z,74.9422
2023-05-21T08:04:59.730Z,74.4689
2023-05-21T08:05:59.975Z,74.2897
2023-05-21T08:07:00.697Z,74.1841
2023-05-21T08:08:01.519Z,74.0804
2023-05-21T08:09:03.170Z,73.9935
2023-05-21T08:10:04.020Z,73.9645
2023-05-21T08:11:04.388Z,73.9505
2023-05-21T08:12:05.862Z,73.9624
2023-05-21T08:13:06.777Z,73.9686
2023-05-21T08:14:07.533Z,73.9511
2023-05-21T08:15:09.638Z,73.9132
2023-05-21T08:16:10.241Z,73.8621
2023-05-21T08:23:14.100Z,72.8358
2023-05-21T08:26:19.632Z,72.0147
2023-05-21T08:27:21.527Z,71.7908
2023-05-21T08:36:28.678Z,69.2528
2023-05-21T08:37:28.408Z,68.8884
2023-05-21T08:38:30.540Z,68.5548
2023-05-21T08:39:30.077Z,68.2337
2023-05-21T08:40:30.145Z,67.9328
2023-05-21T08:41:31.167Z,67.6326
2023-05-21T08:42:37.005Z,67.3254
2023-05-21T08:43:33.759Z,67.0064
2023-05-21T08:47:46.811Z,65.9316
2023-05-21T08:54:50.289Z,64.4236
2023-05-21T08:55:51.771Z,64.4320
2023-05-21T08:56:53.571Z,64.4731
2023-05-21T09:02:21.736Z,64.8581
2023-05-21T09:04:23.517Z,64.6649
2023-05-21T09:06:24.644Z,64.2376
2023-05-21T09:07:25.056Z,64.2446
2023-05-21T09:08:26.251Z,64.2421
2023-05-21T09:09:28.360Z,64.1196
2023-05-21T09:11:29.058Z,63.6463
2023-05-21T09:17:30.559Z,62.3872
2023-05-21T09:18:31.636Z,62.3071
2023-05-21T09:19:32.226Z,62.1851
2023-05-21T09:20:32.119Z,62.0412
2023-05-21T09:21:32.986Z,61.8811
2023-05-21T09:22:34.078Z,61.7215
2023-05-21T09:23:34.925Z,61.6003
2023-05-21T09:26:34.692Z,61.4410
2023-05-21T09:30:30.058Z,61.4632
2023-05-21T09:32:13.485Z,61.7160
2023-05-21T09:33:13.602Z,61.9870
2023-05-21T09:34:14.300Z,62.3394
2023-05-21T09:35:15.098Z,62.5666
2023-05-21T09:36:15.395Z,62.7620
2023-05-21T09:37:26.551Z,62.9259
2023-05-21T09:38:18.083Z,63.3144
2023-05-21T09:39:18.173Z,63.6996
2023-05-21T09:41:22.324Z,64.3153
2023-05-21T09:46:24.967Z,64.7326
2023-05-21T09:47:25.753Z,64.8325
2023-05-21T09:48:25.606Z,65.0418
2023-05-21T09:49:26.335Z,65.1485
2023-05-21T09:56:37.770Z,65.3212
2023-05-21T09:57:38.198Z,65.1987
2023-05-21T09:58:39.928Z,64.9679
2023-05-21T09:59:40.926Z,64.7214
2023-05-21T10:01:40.977Z,63.4832
2023-05-21T10:02:42.252Z,62.7326
2023-05-21T10:03:42.436Z,62.0485
2023-05-21T10:04:42.756Z,61.3997
2023-05-21T10:05:43.582Z,60.7824
2023-05-21T10:06:44.795Z,60.1763
2023-05-21T10:07:46.474Z,59.6094
2023-05-21T10:08:47.151Z,59.0887
2023-05-21T10:09:48.014Z,58.6098
2023-05-21T10:14:52.152Z,57.1203
2023-05-21T10:17:54.644Z,57.0637
2023-05-21T10:18:54.869Z,56.8873
2023-05-21T10:19:56.190Z,56.6031
2023-05-21T10:20:57.398Z,56.2180
2023-05-21T10:21:57.013Z,55.6719
2023-05-21T10:22:57.963Z,55.1575
2023-05-21T10:28:01.176Z,52.7982
2023-05-21T10:29:01.662Z,52.3293
2023-05-21T10:31:14.057Z,51.3974
2023-05-21T10:32:15.167Z,51.1439
2023-05-21T10:33:16.614Z,50.9333
2023-05-21T10:34:16.818Z,50.6358
2023-05-21T10:35:17.898Z,50.2816
2023-05-21T10:36:18.655Z,49.9881
2023-05-21T10:37:19.545Z,49.7986
2023-05-21T10:38:20.633Z,49.6263
2023-05-21T10:40:27.303Z,49.1773
2023-05-21T10:42:33.256Z,48.5555
2023-05-21T10:43:33.876Z,48.2161
2023-05-21T10:44:35.338Z,47.8986
2023-05-21T10:45:36.209Z,47.5839
2023-05-21T11:00:22.499Z,45.0515
2023-05-21T11:01:22.707Z,45.3169
2023-05-21T11:02:22.873Z,45.6380
2023-05-21T11:03:24.573Z,45.8461
2023-05-21T11:04:24.697Z,45.9752
2023-05-21T11:05:32.736Z,46.1247
2023-05-21T11:06:27.647Z,46.1735
2023-05-21T11:15:52.769Z,43.8610
2023-05-21T11:17:53.848Z,43.7590
2023-05-21T11:18:54.668Z,43.8641
2023-05-21T11:21:57.541Z,43.8996
2023-05-21T11:22:58.546Z,44.1784
2023-05-21T11:24:58.650Z,44.2988
2023-05-21T11:25:59.778Z,44.0741
2023-05-21T11:28:01.231Z,43.6489
2023-05-21T11:29:02.596Z,43.5833
2023-05-21T11:30:03.258Z,43.3265
2023-05-21T11:31:04.027Z,43.1098
2023-05-21T11:32:04.956Z,43.1083
2023-05-21T11:33:05.998Z,43.1290
2023-05-21T11:34:06.850Z,43.0803
2023-05-21T11:35:07.607Z,43.1242
2023-05-21T11:41:13.279Z,43.0323
2023-05-21T11:42:13.677Z,42.8935
2023-05-21T11:43:14.329Z,42.7779
2023-05-21T11:44:14.660Z,42.6318
2023-05-21T11:45:15.521Z,42.4916
2023-05-21T11:46:16.053Z,42.4120
2023-05-21T11:47:17.768Z,42.3720
2023-05-21T11:48:17.918Z,42.3617
2023-05-21T11:50:18.959Z,42.3908
2023-05-21T11:51:19.065Z,42.3583
2023-05-21T11:52:19.599Z,42.3164
2023-05-21T11:53:20.934Z,42.2654
2023-05-21T11:54:21.019Z,42.1322
2023-05-21T11:55:21.625Z,41.9140
2023-05-21T11:56:21.992Z,41.6768
2023-05-21T11:57:22.220Z,41.6669
2023-05-21T11:58:23.549Z,41.5865
2023-05-21T12:01:24.548Z,41.2258
2023-05-21T12:04:27.922Z,41.0190
2023-05-21T12:05:28.313Z,40.9587
2023-05-21T12:10:30.323Z,40.4544
2023-05-21T12:11:30.492Z,40.3207
2023-05-21T12:12:38.877Z,40.1852
2023-05-21T12:13:32.268Z,40.0546
2023-05-21T12:14:32.081Z,39.9665
2023-05-21T12:15:32.655Z,40.0586
2023-05-21T12:16:33.805Z,40.2126
2023-05-21T12:17:34.986Z,40.4588
2023-05-21T12:19:35.888Z,40.9296
2023-05-21T12:20:37.268Z,41.1712
2023-05-21T12:21:37.615Z,41.3828
2023-05-21T12:23:39.611Z,41.6701
2023-05-21T12:24:40.813Z,41.8215
2023-05-21T12:28:43.417Z,41.8816
2023-05-21T12:29:44.498Z,41.6117
2023-05-21T12:32:45.615Z,42.0101
2023-05-21T12:33:45.702Z,42.3472
2023-05-21T12:34:45.874Z,42.6484
2023-05-21T12:35:47.841Z,43.0047
2023-05-21T12:38:49.706Z,44.2555
2023-05-21T12:39:50.718Z,44.4884
2023-05-21T12:40:51.394Z,44.5742
2023-05-21T12:41:51.205Z,44.6150
2023-05-21T12:47:54.193Z,45.9901
2023-05-21T12:48:54.988Z,46.4221
2023-05-21T12:50:06.619Z,46.8603
2023-05-21T12:51:00.498Z,47.3363
2023-05-21T12:52:02.914Z,47.6140
2023-05-21T12:54:04.884Z,48.0712
2023-05-21T12:55:07.528Z,48.1470
2023-05-21T12:56:06.011Z,48.2525
2023-05-21T12:57:06.795Z,48.3282
2023-05-21T12:58:06.830Z,48.3977
2023-05-21T12:59:07.521Z,48.4439
2023-05-21T13:00:08.890Z,48.3285
2023-05-21T13:01:09.908Z,48.2517
2023-05-21T13:02:10.718Z,48.5526
2023-05-21T13:13:21.473Z,48.4942
2023-05-21T13:15:20.767Z,48.4660
2023-05-21T13:16:21.680Z,48.5537
2023-05-21T13:21:23.812Z,49.5690
2023-05-21T13:22:23.797Z,49.8146
2023-05-21T13:23:24.946Z,49.8737
2023-05-21T13:26:27.042Z,49.7285
2023-05-21T13:27:27.975Z,50.0454
2023-05-21T13:29:30.070Z,50.3324
2023-05-21T13:31:31.086Z,50.2729
2023-05-21T13:32:31.879Z,50.4643
2023-05-21T13:33:33.322Z,50.6303
2023-05-21T13:35:33.653Z,50.6608
2023-05-21T13:36:34.878Z,50.7105
2023-05-21T13:38:35.413Z,50.5585
2023-05-21T13:39:35.589Z,50.4706
2023-05-21T13:40:38.864Z,50.3439
2023-05-21T13:41:38.155Z,50.2089
2023-05-21T13:50:44.838Z,51.4495
2023-05-21T13:51:45.464Z,51.8095
2023-05-21T13:52:46.982Z,52.1833
2023-05-21T13:53:48.498Z,52.5019
2023-05-21T13:54:48.644Z,52.7628
2023-05-21T13:55:49.112Z,52.9985
2023-05-21T13:56:50.037Z,53.2924
2023-05-21T13:57:51.498Z,53.5655
2023-05-21T13:58:51.871Z,53.8153
2023-05-21T13:59:52.385Z,54.0687
2023-05-21T14:03:53.727Z,54.8067
2023-05-21T14:05:57.570Z,54.9110
2023-05-21T14:06:57.822Z,54.9594
2023-05-21T14:07:57.376Z,55.0278
2023-05-21T14:08:58.394Z,55.0193
2023-05-21T14:09:58.864Z,54.9539
2023-05-21T14:12:01.666Z,54.8483
2023-05-21T14:13:18.269Z,54.8401
2023-05-21T14:14:06.056Z,54.7147
2023-05-21T14:15:07.066Z,54.4092
2023-05-21T14:16:07.298Z,53.8343
2023-05-21T14:17:09.033Z,53.2342
2023-05-21T14:18:10.908Z,52.7944
2023-05-21T14:25:14.978Z,49.8041
2023-05-21T14:26:15.996Z,49.7435
2023-05-21T14:27:17.108Z,49.7259
2023-05-21T14:28:18.312Z,49.7540
2023-05-21T14:31:19.792Z,50.1947
2023-05-21T14:32:20.184Z,50.3445
2023-05-21T14:33:22.383Z,50.4577
2023-05-21T14:34:24.089Z,50.5058
2023-05-21T14:35:25.566Z,50.5415
2023-05-21T14:37:26.579Z,50.7052
2023-05-21T14:38:27.523Z,50.8236
2023-05-21T14:43:29.770Z,51.3509
2023-05-21T14:45:31.020Z,51.5752
2023-05-21T14:46:32.468Z,51.7119
2023-05-21T14:54:37.179Z,53.8215
2023-05-21T14:55:39.084Z,54.3903
2023-05-21T14:57:39.480Z,55.4221
2023-05-21T14:58:39.610Z,55.9107
2023-05-21T14:59:40.216Z,56.3361
2023-05-21T15:00:41.262Z,56.7738
2023-05-21T15:02:40.354Z,57.5983
2023-05-21T15:03:41.169Z,57.9960
2023-05-21T15:04:42.397Z,58.3416
2023-05-21T15:05:43.181Z,58.6512
2023-05-21T15:06:43.281Z,58.9352
2023-05-21T15:09:47.360Z,59.7516
2023-05-21T15:10:48.670Z,60.0090
2023-05-21T15:11:49.053Z,60.2198
2023-05-21T15:12:49.148Z,60.3661
2023-05-21T15:13:49.523Z,60.4401
2023-05-21T15:14:50.288Z,60.4941
2023-05-21T15:15:50.339Z,60.5069
2023-05-21T15:16:50.936Z,60.7876
2023-05-21T15:19:52.121Z,60.0142
2023-05-21T15:23:52.463Z,59.0570
2023-05-21T15:24:53.366Z,58.7788
2023-05-21T15:25:53.466Z,58.4551
2023-05-21T15:26:54.262Z,58.1036
2023-05-21T15:27:54.330Z,57.7070
2023-05-21T15:42:37.745Z,52.9862
2023-05-21T15:43:38.360Z,52.6774
2023-05-21T15:44:40.164Z,52.3567
2023-05-21T15:45:41.768Z,52.0582
2023-05-21T15:48:46.330Z,51.3547
2023-05-21T15:55:32.912Z,50.4715
2023-05-21T15:57:34.045Z,50.1519
2023-05-21T15:59:46.363Z,49.9102
2023-05-21T16:00:46.874Z,49.8955
2023-05-21T16:01:48.562Z,49.8666
2023-05-21T16:02:49.516Z,49.8017
2023-05-21T16:03:50.464Z,49.7381
2023-05-21T16:04:51.420Z,49.6971
2023-05-21T16:05:51.943Z,49.7060
2023-05-21T16:06:52.726Z,49.7178
2023-05-21T16:07:53.416Z,49.6938
2023-05-21T16:08:53.452Z,49.6286
2023-05-21T16:09:54.910Z,49.5489
2023-05-21T16:10:55.372Z,49.5761
2023-05-21T16:14:59.546Z,49.8134
2023-05-21T16:16:00.835Z,49.8988
2023-05-21T16:17:01.358Z,50.1563
2023-05-21T16:20:03.204Z,51.2085
2023-05-21T16:21:05.011Z,51.5411
2023-05-21T16:22:05.389Z,51.8729
2023-05-21T16:23:05.772Z,52.1652
2023-05-21T16:24:06.071Z,52.4845
2023-05-21T16:27:06.954Z,53.9066
2023-05-21T16:33:11.605Z,56.6919
2023-05-21T16:34:12.036Z,57.1050
2023-05-21T16:35:13.474Z,57.5002
2023-05-21T16:36:16.308Z,57.8454
2023-05-21T16:37:15.740Z,58.1836
2023-05-21T16:38:16.673Z,58.4682
2023-05-21T16:39:17.229Z,58.7488
2023-05-21T16:40:18.247Z,58.9887
2023-05-21T16:41:19.750Z,59.2116
2023-05-21T16:42:20.244Z,59.4028
2023-05-21T16:43:21.346Z,59.5407
2023-05-21T16:44:22.911Z,59.6093
2023-05-21T16:45:23.386Z,59.6694
2023-05-21T16:46:24.582Z,59.7278
2023-05-21T16:48:25.367Z,59.8203
2023-05-21T16:51:27.967Z,59.7899
2023-05-21T16:52:29.350Z,59.7477
2023-05-21T16:53:30.471Z,59.6997
2023-05-21T16:59:34.275Z,59.8940
2023-05-21T17:00:34.372Z,60.0421
2023-05-21T17:01:35.447Z,60.1730
2023-05-21T17:04:36.476Z,60.6492
2023-05-21T17:05:37.260Z,60.8526
2023-05-21T17:06:39.150Z,61.0763
2023-05-21T17:07:40.001Z,61.3307
2023-05-21T17:08:40.288Z,61.5904
2023-05-21T17:09:41.285Z,61.8770
2023-05-21T17:10:43.051Z,62.1875
2023-05-21T17:11:44.170Z,62.5222
2023-05-21T17:13:45.415Z,63.1647
2023-05-21T17:14:45.670Z,63.4583
2023-05-21T17:16:45.993Z,64.0291
2023-05-21T17:17:47.112Z,64.2946
2023-05-21T17:18:47.691Z,64.5445
2023-05-21T17:19:48.103Z,64.7805
2023-05-21T17:20:48.622Z,65.0214
2023-05-21T17:21:48.916Z,65.2842
2023-05-21T17:22:49.780Z,65.4819
2023-05-21T17:23:50.368Z,65.6228
2023-05-21T17:24:50.878Z,65.7010
2023-05-21T17:25:51.105Z,65.7764
2023-05-21T17:26:51.958Z,65.8497
2023-05-21T17:27:52.646Z,65.9223
2023-05-21T17:28:53.172Z,66.0117
2023-05-21T17:29:54.164Z,66.1038
2023-05-21T17:30:55.786Z,66.2094
2023-05-21T17:31:56.928Z,66.3218
2023-05-21T17:32:57.719Z,66.4495
2023-05-21T17:33:59.152Z,66.5853
2023-05-21T17:36:00.417Z,66.9106
2023-05-21T17:37:00.844Z,67.0915
2023-05-21T17:38:01.513Z,67.2831
2023-05-21T17:39:01.693Z,67.4916
2023-05-21T17:40:03.152Z,67.7111
2023-05-21T17:46:07.538Z,69.1179
2023-05-21T17:47:08.925Z,69.3522
2023-05-21T17:48:09.048Z,69.5758
2023-05-21T17:49:09.876Z,69.7983
2023-05-21T17:50:11.098Z,70.0208
2023-05-21T17:51:11.372Z,70.2501
2023-05-21T17:52:11.409Z,70.4645
2023-05-21T17:53:12.515Z,70.6758
2023-05-21T17:54:13.751Z,70.8868
2023-05-21T17:55:14.924Z,71.0945
2023-05-21T17:56:15.949Z,71.2892
2023-05-21T17:59:16.257Z,71.8470
2023-05-21T18:00:17.121Z,72.0193
2023-05-21T18:01:17.115Z,72.1771
2023-05-21T18:02:19.441Z,72.3386
2023-05-21T18:03:20.986Z,72.4971
2023-05-21T18:04:21.281Z,72.6378
2023-05-21T18:09:22.871Z,73.2899
2023-05-21T18:10:24.316Z,73.3976
2023-05-21T18:11:24.436Z,73.5095
2023-05-21T18:13:27.392Z,73.7173
2023-05-21T18:18:29.007Z,74.1571
2023-05-21T18:19:30.876Z,74.2347
2023-05-21T18:20:30.661Z,74.3231
2023-05-21T18:23:32.191Z,74.5378
2023-05-21T18:24:32.766Z,74.5960
2023-05-21T18:25:35.517Z,74.6573
2023-05-21T18:26:36.474Z,74.7320
2023-05-21T18:27:36.886Z,74.7929
2023-05-21T18:28:37.356Z,74.8649
2023-05-21T18:30:39.009Z,74.9862
2023-05-21T18:31:38.981Z,75.0438
2023-05-21T18:35:40.680Z,75.2952
2023-05-21T18:36:41.596Z,75.3848
2023-05-21T18:37:42.506Z,75.4861
2023-05-21T18:40:44.816Z,75.6822
2023-05-21T18:41:45.416Z,75.7478
2023-05-21T18:43:47.363Z,75.9229
2023-05-21T18:44:48.415Z,75.9713
2023-05-21T18:45:49.298Z,76.0129
2023-05-21T18:46:49.824Z,76.0589
2023-05-21T18:47:51.080Z,76.1112
2023-05-21T18:48:51.642Z,76.1644
2023-05-21T18:50:52.876Z,76.2383
2023-05-21T18:51:53.113Z,76.2772
2023-05-21T18:52:55.027Z,76.3247
2023-05-21T18:53:56.028Z,76.3609
2023-05-21T18:54:56.312Z,76.4153
2023-05-21T18:55:56.455Z,76.4874
2023-05-21T19:05:02.698Z,76.8726
2023-05-21T19:06:03.664Z,76.9231
2023-05-21T19:07:03.842Z,76.9795
2023-05-21T19:08:05.470Z,77.0455
2023-05-21T19:09:06.424Z,77.1376
2023-05-21T19:11:07.527Z,77.4578
2023-05-21T19:12:08.130Z,77.5996
2023-05-21T19:13:08.414Z,77.7244
2023-05-21T19:14:09.616Z,77.8198
2023-05-21T19:15:11.408Z,77.9019
2023-05-21T19:17:11.549Z,78.0800
2023-05-21T19:18:12.108Z,78.1728
2023-05-21T19:19:12.739Z,78.2754
2023-05-21T19:20:13.810Z,78.3604
2023-05-21T19:21:14.924Z,78.4339
2023-05-21T19:22:15.510Z,78.4957
2023-05-21T19:23:15.734Z,78.5881
2023-05-21T19:24:16.018Z,78.6530
2023-05-21T19:25:16.302Z,78.7127
2023-05-21T19:26:16.998Z,78.7737
2023-05-21T19:27:18.272Z,78.8209
2023-05-21T19:30:19.225Z,78.9359
2023-05-21T19:31:19.362Z,78.9786
2023-05-21T19:32:20.695Z,79.0191
2023-05-21T19:37:23.178Z,79.2643
2023-05-21T19:40:25.456Z,79.4405
2023-05-21T19:41:25.857Z,79.5080
2023-05-21T19:42:26.944Z,79.5535
2023-05-21T19:43:28.442Z,79.5815
2023-05-21T19:44:28.484Z,79.5912
2023-05-21T19:45:29.365Z,79.6029
2023-05-21T19:46:30.038Z,79.6161
2023-05-21T19:56:34.296Z,79.9235
2023-05-21T19:57:34.578Z,79.9435
2023-05-21T20:02:38.714Z,80.0172
2023-05-21T20:03:39.116Z,80.0396
2023-05-21T20:08:41.991Z,80.1502
2023-05-21T20:09:42.813Z,80.1639
2023-05-21T20:11:44.327Z,80.1996
2023-05-21T20:12:44.439Z,80.2137
2023-05-21T20:13:45.949Z,80.2352
2023-05-21T20:14:47.010Z,80.2419
2023-05-21T20:15:47.368Z,80.2469
2023-05-21T20:16:49.184Z,80.2431
2023-05-21T20:17:50.046Z,80.2331
2023-05-21T20:18:50.934Z,80.2363
2023-05-21T20:19:52.388Z,80.2447
2023-05-21T20:20:52.738Z,80.2477
2023-05-21T20:21:52.854Z,80.2497
2023-05-21T20:33:00.262Z,80.3186
2023-05-21T20:34:01.501Z,80.3246